createdAt,value
2022-08-21T00:02:48.241Z,20.03
2022-08-21T00:06:14.068Z,20.01
2022-08-21T00:09:35.940Z,20.00
2022-08-21T00:12:59.645Z,19.98
2022-08-21T00:16:21.366Z,19.98
2022-08-21T00:19:42.944Z,19.97
2022-08-21T00:23:05.194Z,19.97
2022-08-21T00:26:27.370Z,19.96
2022-08-21T00:29:50.426Z,19.95
2022-08-21T00:33:13.897Z,19.96
2022-08-21T00:36:35.550Z,19.98
2022-08-21T00:39:57.570Z,19.98
2022-08-21T00:43:22.738Z,19.94
2022-08-21T00:46:47.574Z,19.90
2022-08-21T00:50:22.156Z,19.88
2022-08-21T00:53:51.704Z,19.85
2022-08-21T00:57:23.133Z,19.85
2022-08-21T01:00:50.214Z,19.80
2022-08-21T01:04:13.667Z,19.79
2022-08-21T01:07:35.562Z,19.78
2022-08-21T01:10:58.952Z,19.76
2022-08-21T01:14:23.682Z,19.75
2022-08-21T01:17:45.734Z,19.74
2022-08-21T01:21:12.690Z,19.71
2022-08-21T01:24:36.116Z,19.67
2022-08-21T01:27:59.771Z,19.65
2022-08-21T01:31:26.470Z,19.65
2022-08-21T01:34:50.097Z,19.62
2022-08-21T01:38:13.586Z,19.61
2022-08-21T01:41:35.731Z,19.58
2022-08-21T01:44:57.642Z,19.50
2022-08-21T01:48:19.878Z,19.50
2022-08-21T01:51:41.709Z,19.49
2022-08-21T01:55:05.658Z,19.45
2022-08-21T01:58:27.287Z,19.45
2022-08-21T02:01:49.190Z,19.42
2022-08-21T02:05:13.447Z,19.40
2022-08-21T02:08:35.481Z,19.38
2022-08-21T02:11:58.649Z,19.36
2022-08-21T02:15:21.018Z,19.31
2022-08-21T02:18:42.722Z,19.29
2022-08-21T02:22:05.046Z,19.19
2022-08-21T02:25:28.540Z,19.15
2022-08-21T02:28:52.019Z,19.13
2022-08-21T02:32:15.787Z,19.08
2022-08-21T02:35:38.422Z,19.04
2022-08-21T02:39:01.150Z,19.02
2022-08-21T02:42:23.244Z,19.01
2022-08-21T02:45:48.001Z,18.98
2022-08-21T02:49:09.572Z,18.98
2022-08-21T02:52:31.612Z,18.94
2022-08-21T02:55:54.504Z,18.90
2022-08-21T02:59:16.453Z,18.88
2022-08-21T03:02:40.091Z,18.85
2022-08-21T03:06:01.985Z,18.82
2022-08-21T03:09:23.858Z,18.78
2022-08-21T03:12:45.613Z,18.71
2022-08-21T03:16:09.980Z,18.67
2022-08-21T03:19:33.447Z,18.61
2022-08-21T03:22:55.943Z,18.58
2022-08-21T03:26:18.605Z,18.54
2022-08-21T03:29:41.870Z,18.51
2022-08-21T03:33:03.745Z,18.48
2022-08-21T03:36:27.081Z,18.44
2022-08-21T03:39:49.188Z,18.38
2022-08-21T03:43:11.134Z,18.34
2022-08-21T03:46:32.713Z,18.30
2022-08-21T03:49:55.242Z,18.27
2022-08-21T03:53:18.816Z,18.26
2022-08-21T03:56:41.430Z,18.24
2022-08-21T04:00:03.138Z,18.20
2022-08-21T04:03:27.302Z,18.13
2022-08-21T04:06:50.795Z,18.10
2022-08-21T04:10:13.827Z,18.08
2022-08-21T04:13:35.730Z,18.06
2022-08-21T04:17:06.719Z,18.02
2022-08-21T04:20:29.218Z,17.98
2022-08-21T04:23:51.082Z,17.97
2022-08-21T04:27:14.146Z,17.98
2022-08-21T04:30:36.199Z,17.96
2022-08-21T04:33:58.507Z,17.93
2022-08-21T04:37:20.833Z,17.95
2022-08-21T04:40:43.076Z,17.94
2022-08-21T04:44:07.654Z,17.95
2022-08-21T04:47:50.452Z,17.97
2022-08-21T04:51:15.251Z,17.96
2022-08-21T04:54:38.406Z,17.97
2022-08-21T04:58:01.437Z,17.96
2022-08-21T05:01:27.796Z,17.94
2022-08-21T05:04:53.084Z,17.94
2022-08-21T05:08:19.449Z,17.91
2022-08-21T05:11:41.448Z,17.90
2022-08-21T05:15:03.707Z,17.91
2022-08-21T05:18:27.147Z,17.91
2022-08-21T05:21:49.519Z,17.91
2022-08-21T05:25:12.425Z,17.89
2022-08-21T05:28:34.567Z,17.90
2022-08-21T05:31:56.920Z,17.90
2022-08-21T05:35:20.175Z,17.92
2022-08-21T05:38:42.081Z,17.92
2022-08-21T05:42:03.884Z,17.94
2022-08-21T05:45:42.138Z,17.97
2022-08-21T05:49:06.020Z,17.99
2022-08-21T05:52:29.143Z,18.01
2022-08-21T05:55:51.200Z,18.03
2022-08-21T05:59:14.251Z,18.08
2022-08-21T06:02:36.582Z,18.12
2022-08-21T06:05:58.993Z,18.09
2022-08-21T06:09:22.418Z,18.07
2022-08-21T06:12:44.358Z,18.10
2022-08-21T06:16:11.001Z,18.06
2022-08-21T06:19:32.874Z,17.97
2022-08-21T06:22:54.758Z,18.02
2022-08-21T06:26:17.793Z,18.03
2022-08-21T06:29:44.604Z,18.01
2022-08-21T06:33:08.018Z,18.06
2022-08-21T06:36:29.686Z,18.05
2022-08-21T06:39:51.773Z,18.01
2022-08-21T06:43:17.842Z,18.01
2022-08-21T06:46:40.132Z,17.99
2022-08-21T06:50:01.969Z,18.03
2022-08-21T06:53:24.214Z,18.04
2022-08-21T06:56:46.203Z,17.98
2022-08-21T07:00:11.136Z,17.85
2022-08-21T07:03:35.277Z,17.94
2022-08-21T07:06:57.090Z,17.98
2022-08-21T07:10:22.159Z,17.99
2022-08-21T07:13:44.949Z,17.96
2022-08-21T07:17:08.193Z,18.00
2022-08-21T07:20:32.144Z,18.13
2022-08-21T07:23:54.566Z,18.19
2022-08-21T07:27:16.577Z,18.27
2022-08-21T07:30:38.475Z,18.35
2022-08-21T07:34:01.733Z,18.44
2022-08-21T07:37:23.310Z,18.48
2022-08-21T07:40:45.545Z,18.44
2022-08-21T07:44:07.595Z,18.34
2022-08-21T07:47:42.444Z,18.34
2022-08-21T07:51:09.748Z,18.29
2022-08-21T07:54:33.509Z,18.35
2022-08-21T07:57:55.563Z,18.45
2022-08-21T08:01:17.681Z,18.45
2022-08-21T08:04:39.178Z,18.55
2022-08-21T08:08:14.048Z,18.64
2022-08-21T08:11:35.926Z,18.69
2022-08-21T08:14:58.335Z,18.78
2022-08-21T08:18:20.561Z,18.84
2022-08-21T08:21:43.030Z,18.91
2022-08-21T08:25:09.635Z,18.97
2022-08-21T08:28:32.731Z,19.02
2022-08-21T08:31:54.750Z,19.03
2022-08-21T08:35:17.320Z,19.07
2022-08-21T08:38:39.346Z,19.12
2022-08-21T08:42:33.433Z,19.18
2022-08-21T08:45:55.606Z,19.26
2022-08-21T08:49:22.686Z,19.31
2022-08-21T08:52:49.655Z,19.33
2022-08-21T08:56:13.072Z,19.42
2022-08-21T08:59:42.005Z,19.48
2022-08-21T09:03:06.111Z,19.53
2022-08-21T09:06:38.713Z,19.56
2022-08-21T09:10:12.826Z,19.49
2022-08-21T09:13:46.448Z,19.61
2022-08-21T09:17:21.752Z,19.68
2022-08-21T09:20:51.363Z,19.77
2022-08-21T09:24:26.255Z,19.80
2022-08-21T09:27:48.150Z,19.85
2022-08-21T09:31:14.766Z,19.92
2022-08-21T09:34:38.283Z,19.99
2022-08-21T09:38:03.867Z,19.99
2022-08-21T09:41:30.463Z,20.10
2022-08-21T09:45:10.189Z,20.17
2022-08-21T09:48:32.699Z,20.24
2022-08-21T09:51:57.222Z,20.22
2022-08-21T09:55:42.579Z,20.38
2022-08-21T09:59:16.850Z,20.48
2022-08-21T10:02:39.280Z,20.57
2022-08-21T10:06:09.550Z,20.53
2022-08-21T10:09:33.659Z,20.66
2022-08-21T10:13:05.949Z,20.73
2022-08-21T10:16:41.751Z,20.77
2022-08-21T10:20:09.304Z,20.80
2022-08-21T10:23:42.337Z,20.84
2022-08-21T10:27:18.278Z,20.98
2022-08-21T10:30:48.411Z,21.04
2022-08-21T10:34:23.906Z,21.09
2022-08-21T10:38:00.851Z,21.16
2022-08-21T10:41:33.987Z,21.19
2022-08-21T10:45:09.639Z,21.24
2022-08-21T10:48:38.969Z,21.22
2022-08-21T10:52:27.348Z,21.29
2022-08-21T10:55:57.448Z,21.32
2022-08-21T10:59:29.153Z,21.35
2022-08-21T11:02:57.781Z,21.42
2022-08-21T11:06:24.178Z,21.50
2022-08-21T11:09:50.142Z,21.41
2022-08-21T11:13:19.746Z,21.43
2022-08-21T11:16:48.698Z,21.45
2022-08-21T11:20:17.818Z,21.47
2022-08-21T11:23:46.315Z,21.55
2022-08-21T11:27:17.730Z,21.60
2022-08-21T11:30:49.643Z,21.62
2022-08-21T11:34:23.826Z,21.70
2022-08-21T11:38:01.637Z,21.69
2022-08-21T11:41:31.018Z,21.78
2022-08-21T11:45:04.461Z,21.66
2022-08-21T11:48:39.774Z,21.69
2022-08-21T11:52:11.340Z,21.78
2022-08-21T11:55:41.130Z,21.89
2022-08-21T11:59:11.496Z,21.92
2022-08-21T12:02:37.627Z,21.98
2022-08-21T12:06:02.210Z,22.10
2022-08-21T12:09:35.470Z,22.16
2022-08-21T12:13:10.927Z,22.27
2022-08-21T12:16:37.005Z,22.37
2022-08-21T12:20:03.514Z,22.41
2022-08-21T12:23:32.106Z,22.35
2022-08-21T12:26:56.082Z,22.45
2022-08-21T12:30:34.717Z,22.58
2022-08-21T12:34:00.349Z,22.60
2022-08-21T12:37:28.033Z,22.59
2022-08-21T12:40:55.717Z,22.65
2022-08-21T12:44:24.185Z,22.70
2022-08-21T12:47:51.695Z,22.66
2022-08-21T12:51:16.441Z,22.66
2022-08-21T12:54:43.229Z,22.64
2022-08-21T12:58:08.195Z,22.75
2022-08-21T13:01:37.077Z,22.83
2022-08-21T13:05:16.147Z,22.76
2022-08-21T13:08:41.691Z,22.83
2022-08-21T13:12:10.531Z,22.82
2022-08-21T13:15:34.450Z,22.90
2022-08-21T13:18:59.674Z,22.91
2022-08-21T13:22:33.134Z,23.00
2022-08-21T13:25:56.922Z,23.01
2022-08-21T13:29:22.825Z,23.02
2022-08-21T13:32:48.226Z,22.91
2022-08-21T13:36:13.841Z,22.92
2022-08-21T13:39:37.297Z,22.96
2022-08-21T13:43:02.472Z,23.02
2022-08-21T13:46:26.142Z,23.11
2022-08-21T13:49:51.684Z,23.13
2022-08-21T13:53:24.863Z,23.06
2022-08-21T13:56:49.078Z,23.05
2022-08-21T14:00:18.422Z,23.11
2022-08-21T14:03:45.194Z,23.23
2022-08-21T14:07:19.190Z,23.33
2022-08-21T14:10:45.970Z,23.36
2022-08-21T14:14:22.114Z,23.32
2022-08-21T14:17:44.717Z,23.39
2022-08-21T14:21:08.120Z,23.37
2022-08-21T14:24:32.072Z,23.46
2022-08-21T14:28:03.549Z,23.35
2022-08-21T14:31:35.643Z,23.40
2022-08-21T14:35:03.655Z,23.36
2022-08-21T14:38:29.102Z,23.45
2022-08-21T14:41:51.525Z,23.46
2022-08-21T14:45:17.395Z,23.58
2022-08-21T14:48:44.379Z,23.68
2022-08-21T14:52:06.349Z,23.77
2022-08-21T14:55:28.841Z,23.96
2022-08-21T14:58:52.619Z,25.05
2022-08-21T15:02:14.845Z,25.23
2022-08-21T15:05:38.139Z,25.12
2022-08-21T15:08:59.696Z,25.05
2022-08-21T15:12:21.814Z,24.83
2022-08-21T15:15:46.471Z,24.77
2022-08-21T15:19:08.466Z,24.71
2022-08-21T15:22:32.065Z,24.64
2022-08-21T15:25:58.486Z,24.53
2022-08-21T15:29:22.965Z,24.47
2022-08-21T15:32:44.861Z,24.42
2022-08-21T15:36:07.151Z,24.45
2022-08-21T15:39:31.685Z,24.42
2022-08-21T15:43:02.413Z,24.42
2022-08-21T15:46:24.391Z,24.48
2022-08-21T15:49:46.834Z,24.49
2022-08-21T15:53:08.824Z,24.46
2022-08-21T15:56:38.924Z,24.47
2022-08-21T16:00:11.002Z,24.49
2022-08-21T16:03:35.030Z,24.50
2022-08-21T16:07:03.162Z,24.55
2022-08-21T16:10:29.772Z,24.56
2022-08-21T16:13:56.828Z,24.54
2022-08-21T16:17:18.826Z,24.55
2022-08-21T16:20:40.572Z,24.55
2022-08-21T16:24:02.451Z,24.56
2022-08-21T16:27:27.231Z,24.52
2022-08-21T16:30:52.179Z,24.47
2022-08-21T16:34:18.847Z,24.40
2022-08-21T16:37:41.246Z,24.35
2022-08-21T16:41:03.293Z,24.28
2022-08-21T16:44:30.177Z,24.19
2022-08-21T16:47:54.132Z,24.10
2022-08-21T16:51:17.242Z,24.01
2022-08-21T16:54:39.103Z,23.88
2022-08-21T16:58:01.784Z,23.74
2022-08-21T17:01:27.561Z,23.60
2022-08-21T17:04:50.750Z,23.46
2022-08-21T17:08:12.347Z,23.36
2022-08-21T17:11:38.384Z,23.24
2022-08-21T17:15:06.605Z,23.12
2022-08-21T17:18:29.050Z,22.96
2022-08-21T17:21:52.062Z,22.83
2022-08-21T17:25:14.217Z,22.73
2022-08-21T17:28:38.599Z,22.59
2022-08-21T17:32:00.718Z,22.44
2022-08-21T17:35:23.077Z,22.31
2022-08-21T17:38:46.612Z,22.19
2022-08-21T17:42:11.395Z,22.08
2022-08-21T17:45:33.070Z,21.96
2022-08-21T17:49:00.304Z,21.81
2022-08-21T17:52:23.197Z,21.67
2022-08-21T17:55:46.517Z,21.60
2022-08-21T17:59:08.818Z,21.51
2022-08-21T18:02:31.773Z,21.40
2022-08-21T18:05:56.899Z,21.31
2022-08-21T18:09:19.080Z,21.19
2022-08-21T18:12:45.419Z,21.08
2022-08-21T18:16:11.168Z,20.99
2022-08-21T18:19:33.022Z,20.89
2022-08-21T18:22:57.757Z,20.77
2022-08-21T18:26:27.077Z,20.67
2022-08-21T18:29:52.018Z,20.57
2022-08-21T18:33:15.473Z,20.47
2022-08-21T18:36:43.216Z,20.35
2022-08-21T18:40:07.444Z,20.21
2022-08-21T18:43:29.304Z,20.06
2022-08-21T18:46:56.344Z,19.94
2022-08-21T18:50:20.888Z,19.82
2022-08-21T18:53:42.825Z,19.75
2022-08-21T18:57:09.220Z,19.67
2022-08-21T19:00:37.687Z,19.61
2022-08-21T19:04:08.848Z,19.57
2022-08-21T19:07:31.057Z,19.48
2022-08-21T19:10:57.629Z,19.36
2022-08-21T19:14:20.453Z,19.27
2022-08-21T19:17:46.955Z,19.22
2022-08-21T19:21:14.057Z,19.18
2022-08-21T19:24:35.600Z,19.14
2022-08-21T19:27:57.408Z,19.08
2022-08-21T19:31:24.030Z,19.01
2022-08-21T19:34:46.035Z,18.95
2022-08-21T19:38:09.090Z,18.87
2022-08-21T19:41:34.191Z,18.77
2022-08-21T19:44:57.561Z,18.66
2022-08-21T19:48:20.008Z,18.58
2022-08-21T19:51:42.819Z,18.51
2022-08-21T19:55:08.678Z,18.44
2022-08-21T19:58:39.218Z,18.34
2022-08-21T20:02:01.414Z,18.30
2022-08-21T20:05:24.075Z,18.24
2022-08-21T20:08:46.895Z,18.17
2022-08-21T20:12:13.176Z,18.08
2022-08-21T20:15:36.317Z,18.01
2022-08-21T20:18:58.030Z,17.94
2022-08-21T20:22:20.142Z,17.87
2022-08-21T20:25:42.214Z,17.79
2022-08-21T20:29:07.138Z,17.75
2022-08-21T20:32:29.370Z,17.69
2022-08-21T20:35:53.978Z,17.63
2022-08-21T20:39:16.251Z,17.57
2022-08-21T20:42:38.876Z,17.50
2022-08-21T20:46:01.983Z,17.43
2022-08-21T20:49:28.930Z,17.36
2022-08-21T20:52:54.927Z,17.31
2022-08-21T20:56:38.283Z,17.25
2022-08-21T21:00:03.992Z,17.20
2022-08-21T21:03:35.107Z,17.12
2022-08-21T21:06:59.147Z,17.09
2022-08-21T21:10:29.391Z,17.04
2022-08-21T21:13:59.211Z,16.97
2022-08-21T21:17:31.365Z,16.89
2022-08-21T21:21:01.587Z,16.90
2022-08-21T21:24:27.705Z,16.87
2022-08-21T21:27:56.563Z,16.86
2022-08-21T21:31:18.619Z,16.81
2022-08-21T21:34:43.103Z,16.78
2022-08-21T21:38:16.466Z,16.73
2022-08-21T21:41:46.268Z,16.71
2022-08-21T21:45:18.991Z,16.70
2022-08-21T21:48:54.316Z,16.63
2022-08-21T21:52:31.015Z,16.58
2022-08-21T21:56:07.048Z,16.49
2022-08-21T21:59:47.389Z,16.40
2022-08-21T22:03:13.738Z,16.35
2022-08-21T22:06:43.441Z,16.31
2022-08-21T22:10:19.602Z,16.28
2022-08-21T22:13:59.700Z,16.22
2022-08-21T22:17:33.965Z,16.18
2022-08-21T22:21:02.684Z,16.16
2022-08-21T22:24:28.557Z,16.08
2022-08-21T22:28:01.726Z,16.02
2022-08-21T22:31:29.565Z,15.97
2022-08-21T22:35:09.361Z,15.93
2022-08-21T22:38:36.897Z,15.91
2022-08-21T22:42:10.791Z,15.88
2022-08-21T22:45:52.647Z,15.84
2022-08-21T22:49:29.346Z,15.82
2022-08-21T22:52:56.948Z,15.80
2022-08-21T22:56:31.574Z,15.78
2022-08-21T22:59:57.806Z,15.75
2022-08-21T23:03:24.766Z,15.73
2022-08-21T23:06:52.025Z,15.71
2022-08-21T23:10:26.211Z,15.67
2022-08-21T23:13:50.753Z,15.67
2022-08-21T23:17:19.864Z,15.66
2022-08-21T23:20:56.083Z,15.63
2022-08-21T23:24:39.089Z,15.58
2022-08-21T23:28:24.531Z,15.54
2022-08-21T23:31:56.917Z,15.51
2022-08-21T23:35:44.966Z,15.45
2022-08-21T23:39:19.801Z,15.40
2022-08-21T23:43:00.249Z,15.39
2022-08-21T23:46:36.405Z,15.40
2022-08-21T23:50:13.775Z,15.42
2022-08-21T23:53:58.326Z,15.43
2022-08-21T23:57:31.835Z,15.43
